ADDS METAR Data INFO
IDs: Format: Raw Decoded Include TAF

Data at: 1156 UTC 25 Jun 2018

KCRS 251153Z AUTO 18006KT 10SM FEW025 OVC046 27/22 A3000 RMK AO2 SLP153 T02670222 10272 20261 51031 $
KCRS 251053Z AUTO 19008KT 10SM SCT026 OVC040 27/22 A2998 RMK AO2 SLP145 T02670217 $
KCRS 251038Z AUTO 20007KT 10SM FEW027 OVC038 27/22 A2997 RMK AO2 T02670217 $
KCRS 250953Z AUTO 19012KT 10SM BKN027 BKN034 26/22 A2993 RMK AO2 SLP127 T02610217 $
KCRS 250853Z AUTO 19012G24KT 10SM BKN028 26/22 A2991 RMK AO2 SLP120 T02610217 53002 $
KCRS 250753Z AUTO 17014G23KT 10SM OVC024 26/22 A2990 RMK AO2 SLP117 T02610217 $
KCRS 250713Z AUTO 18014G21KT 10SM BKN023 27/22 A2989 RMK AO2 T02670222 $
KCRS 250653Z AUTO 17014G20KT 10SM SCT027 27/22 A2989 RMK AO2 SLP116 T02670222 $
KCRS 250553Z AUTO 16010KT 10SM CLR 27/23 A2990 RMK AO2 SLP118 T02720228 10339 20272 403610261 51005 $
KCRS 250453Z AUTO 16012KT 10SM CLR 28/22 A2990 RMK AO2 SLP118 T02780222 $
KCRS 250353Z AUTO 16012KT 10SM CLR 29/22 A2990 RMK AO2 SLP118 T02890222 $
KCRS 250253Z AUTO 16009KT 10SM CLR 29/22 A2988 RMK AO2 SLP113 T02940217 51013 $
KCRS 250153Z AUTO 15010KT 10SM CLR 31/21 A2988 RMK AO2 SLP111 T03060211 $
KCRS 250053Z AUTO 14011KT 10SM CLR 33/22 A2986 RMK AO2 SLP104 T03280217 $
KCRS 242353Z AUTO 17018G25KT 10SM CLR 34/20 A2984 RMK AO2 PK WND 15029/2304 SLP100 T03390200 10361 20328 53001 $
KCRS 242253Z AUTO 16019G23KT 10SM CLR 35/21 A2983 RMK AO2 PK WND 17026/2235 SLP096 T03500211 $
KCRS 242153Z AUTO 16021G30KT 10SM CLR 36/21 A2984 RMK AO2 PK WND 17030/2148 SLP097 T03560211 $
KCRS 241853Z AUTO 17016KT 10SM CLR 34/22 A2988 RMK AO2 SLP109 T03440222 $
KCRS 241753Z AUTO 16015KT 10SM FEW045 34/22 A2989 RMK AO2 SLP115 T03390222 10339 20261 58003 $
KCRS 241653Z AUTO 17014G21KT 10SM SCT041 SCT048 32/22 A2990 RMK AO2 SLP120 T03220217 $
KCRS 241553Z AUTO 19010G18KT 10SM BKN035 31/22 A2991 RMK AO2 SLP121 T03110222 $
KCRS 241453Z AUTO 18016G25KT 10SM BKN036 29/22 A2990 RMK AO2 PK WND 20026/1410 SLP120 T02940217 51031 $
KCRS 241353Z AUTO 20009G19KT 10SM SCT025 BKN032 28/23 A2989 RMK AO2 SLP116 T02830228 $
KCRS 241335Z AUTO 19012KT 10SM BKN024 BKN032 28/23 A2989 RMK AO2 T02780228 $
KCRS 241327Z AUTO 20012KT 10SM SCT024 BKN031 28/23 A2989 RMK AO2 T02780228 $
KCRS 241253Z AUTO 20013KT 10SM BKN023 OVC030 27/23 A2988 RMK AO2 SLP110 T02720228 $
KCRS 241153Z AUTO 18017G25KT 10SM BKN020 BKN026 26/23 A2981 RMK AO2 PK WND 17028/1109 SLP088 T02610228 10278 20261 53009 $
KCRS 241143Z AUTO 19017G25KT 10SM BKN020 26/23 A2981 RMK AO2 PK WND 17028/1109 T02610228 $
KCRS 241053Z AUTO 17019G27KT 10SM FEW018 26/23 A2977 RMK AO2 PK WND 17031/1031 SLP075 T02610228 $
KCRS 240953Z AUTO 19018G28KT 10SM CLR 27/23 A2978 RMK AO2 PK WND 18028/0949 SLP079 T02670228 $
KCRS 240853Z AUTO 16019G27KT 10SM CLR 27/22 A2978 RMK AO2 PK WND 17029/0838 SLP079 T02670222 58025 $
KCRS 240753Z AUTO 18014G18KT 10SM CLR 27/23 A2985 RMK AO2 SLP101 T02670228 $
KCRS 240653Z AUTO 18013G22KT 10SM FEW037 28/23 A2987 RMK AO2 SLP110 T02780228 $
KCRS 240553Z AUTO 18014KT 10SM CLR 28/23 A2986 RMK AO2 SLP105 T02780228 10339 20278 403500250 50025 $
KCRS 240453Z AUTO 19006KT 10SM FEW031 28/23 A2987 RMK AO2 PRESRR SLP109 T02830228 $
KCRS 240353Z AUTO 16012KT 10SM CLR 29/23 A2981 RMK AO2 SLP088 T02940228 $
KCRS 240253Z AUTO 16008KT 10SM CLR 29/22 A2979 RMK AO2 SLP080 T02890217 53009 $
KCRS 240153Z AUTO 16009KT 10SM CLR 31/21 A2977 RMK AO2 SLP073 T03060211 $
KCRS 240053Z AUTO 16013KT 10SM FEW055 32/22 A2976 RMK AO2 SLP072 T03220217 $